Time;durP1;ratioP1;P1;durP2;ratioP2;P2;SDS_P1;SDS_P2;PMS_P1;PMS_P2;Temp;Humidity;BMP_temperature;BMP_pressure;BME280_temperature;BME280_humidity;BME280_pressure;Samples;Min_cycle;Max_cycle;Signal;HPM_P1;HPM_P2
2023/03/20 00:00:56;;;;;;;27.30;23.00;;;7.10;99.90;;;;;;5094427;28;20210;-76
2023/03/20 00:03:23;;;;;;;27.17;21.40;;;7.00;99.90;;;;;;5094498;28;20212;-77
2023/03/20 00:05:51;;;;;;;24.83;21.53;;;7.00;99.90;;;;;;5094383;28;20242;-77
2023/03/20 00:08:18;;;;;;;27.63;22.83;;;7.10;99.90;;;;;;5094090;28;20207;-76
2023/03/20 00:10:46;;;;;;;28.60;23.77;;;7.10;99.90;;;;;;5094572;28;20265;-77
2023/03/20 00:13:18;;;;;;;28.73;23.23;;;7.10;99.90;;;;;;5094127;28;20333;-77
2023/03/20 00:15:45;;;;;;;28.03;21.90;;;7.10;99.90;;;;;;5094359;28;20225;-77
2023/03/20 00:18:17;;;;;;;28.03;22.77;;;7.20;99.90;;;;;;5094228;28;20236;-76
2023/03/20 00:20:44;;;;;;;27.83;22.03;;;7.10;99.90;;;;;;5094246;28;20203;-77
2023/03/20 00:23:12;;;;;;;28.37;22.97;;;7.10;99.90;;;;;;5093994;28;20200;-77
2023/03/20 00:25:40;;;;;;;28.83;22.60;;;7.00;99.90;;;;;;5093906;28;20235;-77
2023/03/20 00:28:37;;;;;;;27.93;21.97;;;7.10;99.90;;;;;;5093997;28;20231;-77
2023/03/20 00:31:05;;;;;;;25.03;21.57;;;7.00;99.90;;;;;;5093906;28;20664;-77
2023/03/20 00:33:32;;;;;;;27.40;22.33;;;7.00;99.90;;;;;;5093696;28;20326;-76
2023/03/20 00:35:58;;;;;;;27.30;22.00;;;6.90;99.90;;;;;;5093690;28;20266;-76
2023/03/20 00:38:26;;;;;;;26.60;22.53;;;6.90;99.90;;;;;;5093690;28;20203;-76
2023/03/20 00:40:53;;;;;;;27.97;23.80;;;6.90;99.90;;;;;;5094697;28;20564;-77
2023/03/20 00:43:19;;;;;;;32.30;24.77;;;6.90;99.90;;;;;;5094359;28;20253;-77
2023/03/20 00:45:46;;;;;;;31.43;25.17;;;6.90;99.90;;;;;;5094489;28;20184;-76
2023/03/20 00:48:15;;;;;;;36.10;25.63;;;6.90;99.90;;;;;;5094156;28;20196;-76
2023/03/20 00:50:42;;;;;;;31.40;26.73;;;6.90;99.90;;;;;;5093866;28;20207;-76
2023/03/20 00:53:10;;;;;;;31.80;25.63;;;6.90;99.90;;;;;;5094212;28;20196;-76
2023/03/20 00:55:39;;;;;;;34.37;27.67;;;6.90;99.90;;;;;;5093919;28;20719;-76
2023/03/20 00:58:07;;;;;;;33.13;27.63;;;6.90;99.90;;;;;;5094004;28;20224;-76
2023/03/20 01:00:38;;;;;;;38.90;29.70;;;6.90;99.90;;;;;;5093640;28;20254;-75
2023/03/20 01:03:11;;;;;;;34.83;27.60;;;6.90;99.90;;;;;;5093596;28;20223;-76
2023/03/20 01:05:38;;;;;;;36.93;28.30;;;6.90;99.90;;;;;;5094102;28;20200;-76
2023/03/20 01:08:10;;;;;;;34.17;28.33;;;6.90;99.90;;;;;;5093741;28;20219;-76
2023/03/20 01:10:38;;;;;;;38.07;28.47;;;6.80;99.90;;;;;;5093207;28;20664;-76
2023/03/20 01:13:12;;;;;;;38.20;29.30;;;6.80;99.90;;;;;;5093524;28;20224;-76
2023/03/20 01:15:39;;;;;;;37.90;29.20;;;6.80;99.90;;;;;;5093424;28;20247;-75
2023/03/20 01:18:06;;;;;;;39.87;29.77;;;6.70;99.90;;;;;;5093031;28;20196;-76
2023/03/20 01:20:33;;;;;;;39.33;30.10;;;6.70;99.90;;;;;;5093304;28;20600;-76
2023/03/20 01:22:59;;;;;;;40.53;31.13;;;6.60;99.90;;;;;;5093130;28;20204;-76
2023/03/20 01:25:26;;;;;;;40.67;29.93;;;6.70;99.90;;;;;;5093393;28;20258;-76
2023/03/20 01:27:56;;;;;;;39.90;31.80;;;6.60;99.90;;;;;;5093309;28;20196;-76
2023/03/20 01:30:25;;;;;;;40.50;32.33;;;6.60;99.90;;;;;;5092935;28;20671;-75
2023/03/20 01:32:52;;;;;;;40.60;31.07;;;6.60;99.90;;;;;;5093035;28;20283;-75
2023/03/20 01:35:22;;;;;;;40.57;31.03;;;6.40;99.90;;;;;;5092963;28;20262;-76
2023/03/20 01:37:50;;;;;;;44.60;33.03;;;6.40;99.90;;;;;;5093328;28;20230;-76
2023/03/20 01:40:31;;;;;;;43.63;32.87;;;6.40;99.90;;;;;;5093270;28;20196;-76
2023/03/20 01:43:00;;;;;;;44.13;32.87;;;6.40;99.90;;;;;;5093260;28;20206;-76
2023/03/20 01:45:31;;;;;;;45.80;32.77;;;6.40;99.90;;;;;;5093460;28;20204;-76
2023/03/20 01:47:58;;;;;;;40.23;31.67;;;6.30;99.90;;;;;;5093701;28;20196;-77
2023/03/20 01:50:30;;;;;;;39.93;31.20;;;6.30;99.90;;;;;;5093469;28;20674;-76
2023/03/20 01:53:10;;;;;;;40.40;30.03;;;6.20;99.90;;;;;;5093471;28;20796;-76
2023/03/20 01:55:39;;;;;;;41.83;31.43;;;6.20;99.90;;;;;;5093402;28;20255;-76
2023/03/20 01:58:12;;;;;;;41.70;32.17;;;6.10;99.90;;;;;;5093324;28;20192;-76
2023/03/20 02:00:39;;;;;;;45.83;32.57;;;6.10;99.90;;;;;;5093113;28;20242;-76
2023/03/20 02:03:07;;;;;;;41.57;32.40;;;6.10;99.90;;;;;;5093339;28;20234;-75
2023/03/20 02:05:36;;;;;;;43.80;32.20;;;6.10;99.90;;;;;;5093208;28;20734;-75
2023/03/20 02:08:16;;;;;;;42.03;31.23;;;6.00;99.90;;;;;;5093091;28;20240;-76
2023/03/20 02:10:44;;;;;;;40.77;31.20;;;6.00;99.90;;;;;;5093505;28;20592;-76
2023/03/20 02:13:14;;;;;;;46.90;32.87;;;6.00;99.90;;;;;;5096437;28;20224;-76
2023/03/20 02:16:02;;;;;;;45.33;33.53;;;5.90;99.90;;;;;;5096498;28;20718;-76
2023/03/20 02:18:29;;;;;;;42.60;31.77;;;6.00;99.90;;;;;;5096712;28;20621;-76
2023/03/20 02:21:23;;;;;;;44.30;32.17;;;5.90;99.90;;;;;;5096544;28;20203;-76
2023/03/20 02:24:19;;;;;;;48.73;34.37;;;6.00;99.90;;;;;;5096410;28;20220;-77
2023/03/20 02:26:59;;;;;;;48.83;33.87;;;6.10;99.90;;;;;;5089443;28;20228;-76
2023/03/20 02:30:06;;;;;;;48.63;33.87;;;6.20;99.90;;;;;;5096156;28;20647;-76
2023/03/20 02:33:07;;;;;;;53.60;33.80;;;6.30;99.90;;;;;;5096265;28;20196;-75
2023/03/20 02:36:09;;;;;;;46.20;33.93;;;6.50;99.90;;;;;;5096777;28;20251;-77
2023/03/20 02:38:58;;;;;;;47.37;34.80;;;6.60;99.90;;;;;;5066345;28;20200;-76
2023/03/20 02:41:30;;;;;;;48.90;34.53;;;6.70;99.90;;;;;;5096516;28;20263;-76
2023/03/20 02:44:04;;;;;;;49.70;34.87;;;6.80;99.90;;;;;;5096677;28;20238;-76
2023/03/20 02:46:39;;;;;;;51.87;36.43;;;6.90;99.90;;;;;;5096296;28;20227;-76
2023/03/20 02:49:17;;;;;;;48.80;34.57;;;6.90;99.90;;;;;;5096131;28;20200;-76
2023/03/20 02:51:53;;;;;;;53.10;35.57;;;6.90;99.90;;;;;;5096178;28;20625;-76
2023/03/20 02:54:28;;;;;;;46.90;33.07;;;6.90;99.90;;;;;;5096670;28;20200;-76
2023/03/20 02:57:01;;;;;;;51.23;34.40;;;7.00;99.90;;;;;;5096386;28;20602;-76
2023/03/20 02:59:32;;;;;;;51.83;34.53;;;7.00;99.90;;;;;;5096080;28;20650;-76
2023/03/20 03:02:04;;;;;;;53.53;34.87;;;7.00;99.90;;;;;;5096024;28;20251;-75
2023/03/20 03:04:35;;;;;;;52.27;34.33;;;7.10;99.90;;;;;;5096437;28;20197;-76
2023/03/20 03:07:03;;;;;;;50.43;35.10;;;7.10;99.90;;;;;;5096148;28;20269;-77
2023/03/20 03:09:35;;;;;;;56.43;37.17;;;7.10;99.90;;;;;;5096164;28;20578;-76
2023/03/20 03:12:07;;;;;;;54.57;34.77;;;7.10;99.90;;;;;;5096272;28;20246;-76
2023/03/20 03:14:38;;;;;;;55.93;36.07;;;7.10;99.90;;;;;;5096044;28;20234;-76
2023/03/20 03:17:08;;;;;;;54.73;34.23;;;7.00;99.90;;;;;;5095973;28;20255;-76
2023/03/20 03:19:37;;;;;;;54.43;34.13;;;7.00;99.90;;;;;;5095976;28;20635;-76
2023/03/20 03:22:05;;;;;;;51.43;33.80;;;6.90;99.90;;;;;;5095382;28;20709;-76
2023/03/20 03:24:35;;;;;;;55.73;33.83;;;7.00;99.90;;;;;;5095687;28;20644;-77
2023/03/20 03:27:05;;;;;;;51.87;33.93;;;7.00;99.90;;;;;;5095562;28;20286;-76
2023/03/20 03:29:36;;;;;;;52.37;33.20;;;7.00;99.90;;;;;;5096084;28;20192;-76
2023/03/20 03:32:06;;;;;;;51.67;33.37;;;7.00;99.90;;;;;;5095810;28;20606;-76
2023/03/20 03:34:33;;;;;;;54.70;34.20;;;7.00;99.90;;;;;;5095161;28;20766;-77
2023/03/20 03:37:06;;;;;;;51.33;32.90;;;7.00;99.90;;;;;;5095451;28;20263;-76
2023/03/20 03:39:43;;;;;;;51.87;34.33;;;7.10;99.90;;;;;;5095531;28;20655;-77
2023/03/20 03:42:20;;;;;;;52.80;33.73;;;7.10;99.90;;;;;;5095672;28;20238;-77
2023/03/20 03:44:55;;;;;;;52.80;33.10;;;7.00;99.90;;;;;;5095580;28;20234;-77
2023/03/20 03:47:27;;;;;;;52.17;34.43;;;7.10;99.90;;;;;;5095340;28;20721;-76
2023/03/20 03:49:58;;;;;;;48.20;31.53;;;7.10;99.90;;;;;;5095282;28;20659;-76
2023/03/20 03:52:25;;;;;;;44.97;30.93;;;7.10;99.90;;;;;;5095014;28;20647;-76
2023/03/20 03:55:00;;;;;;;44.77;30.03;;;7.20;99.90;;;;;;5095089;28;20232;-77
2023/03/20 03:57:31;;;;;;;44.77;29.47;;;7.30;99.90;;;;;;5095249;28;20655;-77
2023/03/20 03:59:59;;;;;;;39.87;27.37;;;7.30;99.90;;;;;;5095230;28;20602;-77
2023/03/20 04:02:26;;;;;;;45.23;29.67;;;7.30;99.90;;;;;;5095057;28;20235;-76
2023/03/20 04:04:54;;;;;;;41.53;29.13;;;7.30;99.90;;;;;;5095531;28;20227;-77
2023/03/20 04:07:21;;;;;;;41.93;29.23;;;7.30;99.90;;;;;;5094780;28;20232;-76
2023/03/20 04:09:48;;;;;;;41.43;28.17;;;7.30;99.90;;;;;;5094854;28;20242;-77
2023/03/20 04:12:33;;;;;;;42.43;29.43;;;7.30;99.90;;;;;;5094933;28;20200;-76
2023/03/20 04:15:00;;;;;;;39.23;27.80;;;7.40;99.90;;;;;;5094927;28;20196;-77
2023/03/20 04:17:27;;;;;;;41.57;27.73;;;7.40;99.90;;;;;;5094993;28;20267;-77
2023/03/20 04:19:53;;;;;;;37.93;27.67;;;7.40;99.90;;;;;;5094930;28;20257;-77
2023/03/20 04:22:20;;;;;;;37.43;26.97;;;7.40;99.90;;;;;;5094659;28;20235;-76
2023/03/20 04:24:47;;;;;;;35.87;27.03;;;7.50;99.90;;;;;;5094596;28;20533;-76
2023/03/20 04:27:13;;;;;;;37.87;27.57;;;7.50;99.90;;;;;;5094531;28;20679;-77
2023/03/20 04:29:41;;;;;;;37.63;27.47;;;7.50;99.90;;;;;;5094616;28;20192;-77
2023/03/20 04:32:08;;;;;;;36.30;26.50;;;7.50;99.90;;;;;;5094445;28;20238;-77
2023/03/20 04:34:34;;;;;;;38.57;27.43;;;7.60;99.90;;;;;;5093950;28;20698;-77
2023/03/20 04:37:01;;;;;;;37.00;26.33;;;7.50;99.90;;;;;;5094331;28;20235;-78
2023/03/20 04:39:28;;;;;;;35.13;26.77;;;7.50;99.90;;;;;;5094295;28;20226;-77
2023/03/20 04:41:54;;;;;;;35.87;26.23;;;7.50;99.90;;;;;;5094339;28;20228;-77
2023/03/20 04:44:21;;;;;;;38.00;27.50;;;7.50;99.90;;;;;;5093808;28;20243;-77
2023/03/20 04:46:49;;;;;;;35.03;26.67;;;7.50;99.90;;;;;;5094425;28;20224;-77
2023/03/20 04:49:15;;;;;;;37.23;27.07;;;7.50;99.90;;;;;;5094348;28;20246;-77
2023/03/20 04:51:42;;;;;;;36.90;27.90;;;7.50;99.90;;;;;;5094269;28;20223;-77
2023/03/20 04:54:09;;;;;;;35.97;26.77;;;7.50;99.90;;;;;;5093919;28;20232;-77
2023/03/20 04:56:35;;;;;;;36.90;26.87;;;7.50;99.90;;;;;;5093837;28;20254;-77
2023/03/20 04:59:02;;;;;;;35.43;26.03;;;7.50;99.90;;;;;;5094190;28;20235;-77
2023/03/20 05:01:28;;;;;;;33.53;25.67;;;7.50;99.90;;;;;;5094028;28;20251;-77
2023/03/20 05:03:59;;;;;;;33.00;25.17;;;7.50;99.90;;;;;;5093979;28;20196;-77
2023/03/20 05:06:26;;;;;;;32.00;23.90;;;7.50;99.90;;;;;;5093686;28;20207;-77
2023/03/20 05:08:53;;;;;;;29.17;23.10;;;7.50;99.90;;;;;;5093776;28;20235;-77
2023/03/20 05:11:19;;;;;;;27.43;22.23;;;7.50;99.90;;;;;;5093745;28;20613;-77
2023/03/20 05:13:46;;;;;;;27.47;20.97;;;7.50;99.90;;;;;;5093643;28;20228;-77
2023/03/20 05:16:12;;;;;;;25.27;20.10;;;7.50;99.90;;;;;;5093658;28;20248;-76
2023/03/20 05:18:39;;;;;;;25.17;19.90;;;7.50;99.90;;;;;;5093480;28;20245;-77
2023/03/20 05:21:08;;;;;;;21.40;17.87;;;7.50;99.90;;;;;;5093743;28;20192;-76
2023/03/20 05:23:35;;;;;;;23.57;18.53;;;7.50;99.90;;;;;;5093585;28;20227;-76
2023/03/20 05:26:01;;;;;;;21.90;16.87;;;7.50;99.90;;;;;;5093302;28;20231;-76
2023/03/20 05:28:28;;;;;;;19.47;15.93;;;7.50;99.90;;;;;;5093390;28;20624;-76
2023/03/20 05:30:55;;;;;;;18.87;15.80;;;7.50;99.90;;;;;;5093466;28;20208;-77
2023/03/20 05:33:22;;;;;;;18.97;15.30;;;7.50;99.90;;;;;;5093333;28;20263;-76
2023/03/20 05:35:49;;;;;;;19.17;16.37;;;7.50;99.90;;;;;;5093317;28;20623;-76
2023/03/20 05:38:21;;;;;;;18.53;15.87;;;7.60;99.90;;;;;;5092889;28;20228;-76
2023/03/20 05:40:48;;;;;;;20.13;16.37;;;7.60;99.90;;;;;;5093394;28;20219;-75
2023/03/20 05:43:14;;;;;;;21.93;16.17;;;7.60;99.90;;;;;;5093293;28;20239;-75
2023/03/20 05:45:42;;;;;;;19.00;16.07;;;7.60;99.90;;;;;;5093872;28;20234;-76
2023/03/20 05:48:09;;;;;;;17.83;14.90;;;7.60;99.90;;;;;;5097289;28;20601;-76
2023/03/20 05:50:35;;;;;;;17.23;14.60;;;7.70;99.90;;;;;;5097298;28;20192;-74
2023/03/20 05:53:02;;;;;;;17.63;15.10;;;7.60;99.90;;;;;;5097079;28;20845;-77
2023/03/20 05:55:30;;;;;;;19.40;17.13;;;7.60;99.90;;;;;;5097207;28;20287;-77
2023/03/20 05:57:56;;;;;;;17.83;15.13;;;7.70;99.90;;;;;;5097211;28;20260;-77
2023/03/20 06:00:23;;;;;;;16.33;14.63;;;7.70;99.90;;;;;;5097076;28;20196;-76
2023/03/20 06:02:50;;;;;;;18.93;15.90;;;7.70;99.90;;;;;;5096851;28;20231;-77
2023/03/20 06:05:17;;;;;;;16.57;14.47;;;7.70;99.90;;;;;;5097049;28;20223;-77
2023/03/20 06:07:44;;;;;;;14.70;13.03;;;7.70;99.90;;;;;;5097251;28;20253;-77
2023/03/20 06:10:11;;;;;;;16.40;13.80;;;7.80;99.90;;;;;;5097053;28;20200;-77
2023/03/20 06:12:39;;;;;;;14.90;13.30;;;7.80;99.90;;;;;;5097089;28;20238;-76
2023/03/20 06:15:07;;;;;;;16.77;14.60;;;7.80;99.90;;;;;;5096656;28;20672;-75
2023/03/20 06:17:33;;;;;;;16.60;13.30;;;7.80;99.90;;;;;;5096626;28;20266;-77
2023/03/20 06:20:00;;;;;;;15.23;13.63;;;7.80;99.90;;;;;;5096734;28;20238;-77
2023/03/20 06:22:26;;;;;;;15.00;12.77;;;7.80;99.90;;;;;;5096585;28;20204;-77
2023/03/20 06:24:53;;;;;;;21.93;18.67;;;7.90;99.90;;;;;;5096622;28;20548;-77
2023/03/20 06:27:20;;;;;;;15.73;14.13;;;7.90;99.90;;;;;;5096503;28;20655;-77
2023/03/20 06:29:48;;;;;;;16.53;14.93;;;7.90;99.90;;;;;;5096519;28;20193;-77
2023/03/20 06:32:16;;;;;;;12.93;11.63;;;7.80;99.90;;;;;;5096242;28;20223;-76
2023/03/20 06:34:42;;;;;;;14.63;12.03;;;7.90;99.90;;;;;;5096341;28;20233;-78
2023/03/20 06:37:09;;;;;;;13.03;11.73;;;7.90;99.90;;;;;;5096435;28;20286;-78
2023/03/20 06:39:36;;;;;;;12.20;11.00;;;7.90;99.90;;;;;;5096751;28;20235;-78
2023/03/20 06:42:03;;;;;;;11.23;9.97;;;7.90;99.90;;;;;;5096320;28;20208;-78
2023/03/20 06:44:29;;;;;;;12.27;10.97;;;7.90;99.90;;;;;;5096500;28;20761;-78
2023/03/20 06:46:57;;;;;;;11.70;10.50;;;7.90;99.90;;;;;;5096028;28;20200;-79
2023/03/20 06:49:24;;;;;;;12.20;10.07;;;8.00;99.90;;;;;;5096126;28;20228;-78
2023/03/20 06:51:51;;;;;;;13.77;10.60;;;8.00;99.90;;;;;;5096084;28;20605;-79
2023/03/20 06:54:18;;;;;;;11.87;10.70;;;8.00;99.90;;;;;;5096012;28;20192;-79
2023/03/20 06:56:45;;;;;;;11.57;10.40;;;8.00;99.90;;;;;;5095347;28;20252;-79
2023/03/20 06:59:12;;;;;;;11.70;10.50;;;8.00;99.90;;;;;;5095775;28;20201;-78
2023/03/20 07:01:38;;;;;;;10.83;9.73;;;8.10;99.90;;;;;;5095713;28;20227;-77
2023/03/20 07:04:06;;;;;;;10.00;9.00;;;8.20;99.90;;;;;;5095788;28;20227;-77
2023/03/20 07:06:33;;;;;;;9.97;8.97;;;8.20;99.90;;;;;;5095662;28;20203;-79
2023/03/20 07:09:01;;;;;;;9.90;8.63;;;8.30;99.90;;;;;;5095619;28;20265;-78
2023/03/20 07:11:28;;;;;;;9.80;8.80;;;8.30;99.90;;;;;;5095595;28;20203;-78
2023/03/20 07:13:55;;;;;;;9.87;8.83;;;8.40;99.90;;;;;;5095926;28;20192;-78
2023/03/20 07:16:22;;;;;;;9.93;8.93;;;8.50;99.90;;;;;;5096091;28;20660;-78
2023/03/20 07:18:49;;;;;;;9.27;8.30;;;8.60;99.90;;;;;;5095535;28;20219;-77
2023/03/20 07:21:21;;;;;;;8.67;7.80;;;8.70;99.90;;;;;;5095273;28;20196;-77
2023/03/20 07:23:48;;;;;;;8.10;7.30;;;8.80;99.90;;;;;;5095304;28;20246;-78
2023/03/20 07:26:14;;;;;;;8.40;7.60;;;8.80;99.90;;;;;;5095086;28;20245;-78
2023/03/20 07:28:41;;;;;;;7.70;6.90;;;8.90;99.90;;;;;;5095137;28;20216;-77
2023/03/20 07:31:17;;;;;;;8.00;7.17;;;8.70;99.90;;;;;;5095351;28;20193;-76
2023/03/20 07:33:44;;;;;;;8.93;7.20;;;8.80;99.90;;;;;;5095030;28;20256;-77
2023/03/20 07:36:11;;;;;;;8.30;7.40;;;8.90;99.90;;;;;;5095304;28;20228;-77
2023/03/20 07:38:39;;;;;;;8.90;7.00;;;8.90;99.90;;;;;;5095021;28;20642;-78
2023/03/20 07:41:05;;;;;;;8.10;7.17;;;9.00;99.90;;;;;;5094798;28;20235;-77
2023/03/20 07:43:33;;;;;;;7.80;6.60;;;9.20;99.90;;;;;;5094786;28;20726;-78
2023/03/20 07:46:02;;;;;;;7.73;6.20;;;9.30;99.90;;;;;;5094925;28;20254;-77
2023/03/20 07:48:28;;;;;;;7.17;6.10;;;9.20;99.90;;;;;;5094858;28;20232;-76
2023/03/20 07:50:55;;;;;;;6.23;5.63;;;9.30;99.90;;;;;;5094608;28;20655;-77
2023/03/20 07:53:22;;;;;;;6.37;5.63;;;9.20;99.90;;;;;;5094685;28;20228;-77
2023/03/20 07:55:49;;;;;;;5.83;5.10;;;9.20;99.90;;;;;;5094353;28;20659;-78
2023/03/20 07:58:16;;;;;;;6.13;5.50;;;9.20;99.90;;;;;;5094516;28;20382;-78
2023/03/20 08:00:43;;;;;;;8.30;5.53;;;9.40;99.90;;;;;;5094534;28;20227;-78
2023/03/20 08:03:09;;;;;;;6.03;5.43;;;9.40;99.90;;;;;;5094488;28;20224;-76
2023/03/20 08:05:36;;;;;;;6.00;5.03;;;9.40;99.90;;;;;;5094262;28;20231;-75
2023/03/20 08:08:03;;;;;;;7.03;5.70;;;9.30;99.90;;;;;;5093699;28;20235;-76
2023/03/20 08:10:30;;;;;;;21.57;14.53;;;9.40;99.90;;;;;;5093842;28;20606;-77
2023/03/20 08:12:58;;;;;;;18.53;13.53;;;9.60;99.90;;;;;;5094395;28;20202;-76
2023/03/20 08:15:25;;;;;;;6.73;6.03;;;9.70;99.90;;;;;;5094119;28;20227;-77
2023/03/20 08:17:51;;;;;;;5.90;5.30;;;9.80;99.90;;;;;;5093705;28;20224;-77
2023/03/20 08:20:18;;;;;;;7.97;5.83;;;9.90;99.90;;;;;;5094009;28;20231;-76
2023/03/20 08:22:45;;;;;;;8.47;5.77;;;9.70;99.90;;;;;;5093708;28;20205;-75
2023/03/20 08:25:12;;;;;;;6.37;5.27;;;9.90;99.90;;;;;;5093688;28;20196;-75
2023/03/20 08:27:39;;;;;;;6.07;5.47;;;9.70;99.90;;;;;;5094160;28;20272;-76
2023/03/20 08:30:09;;;;;;;6.87;5.80;;;9.80;99.90;;;;;;5094055;28;20196;-76
2023/03/20 08:32:36;;;;;;;7.30;5.37;;;10.00;99.90;;;;;;5093740;28;20204;-76
2023/03/20 08:35:03;;;;;;;6.67;5.63;;;10.10;99.90;;;;;;5093775;28;20205;-76
2023/03/20 08:37:29;;;;;;;6.13;5.37;;;10.20;99.90;;;;;;5093436;28;20259;-75
2023/03/20 08:39:56;;;;;;;6.20;5.53;;;10.30;99.90;;;;;;5093871;28;20228;-75
2023/03/20 08:42:22;;;;;;;5.67;5.03;;;10.80;99.90;;;;;;5093815;28;20266;-75
2023/03/20 08:44:49;;;;;;;6.70;5.60;;;10.90;99.90;;;;;;5093685;28;20214;-76
2023/03/20 08:47:17;;;;;;;6.00;4.80;;;10.80;99.90;;;;;;5093418;28;20200;-76
2023/03/20 08:49:44;;;;;;;5.60;5.10;;;10.20;99.90;;;;;;5093585;28;20220;-75
2023/03/20 08:52:11;;;;;;;8.47;5.20;;;10.10;99.90;;;;;;5093526;28;20234;-76
2023/03/20 08:54:37;;;;;;;7.03;5.37;;;9.80;99.90;;;;;;5093683;28;20234;-75
2023/03/20 08:57:04;;;;;;;7.13;5.70;;;9.80;99.90;;;;;;5093506;28;20249;-75
2023/03/20 08:59:31;;;;;;;6.13;5.00;;;9.90;99.90;;;;;;5093531;28;20611;-76
2023/03/20 09:01:58;;;;;;;6.07;5.47;;;9.90;99.90;;;;;;5093545;28;20200;-77
2023/03/20 09:04:26;;;;;;;6.27;5.10;;;9.80;99.90;;;;;;5093347;28;20235;-75
2023/03/20 09:06:53;;;;;;;6.80;4.97;;;9.80;99.90;;;;;;5093281;28;20249;-75
2023/03/20 09:09:25;;;;;;;6.87;5.53;;;9.90;99.90;;;;;;5093139;28;20602;-76
2023/03/20 09:11:53;;;;;;;7.67;5.50;;;9.80;99.90;;;;;;5093411;28;20568;-75
2023/03/20 09:14:19;;;;;;;5.50;5.00;;;9.80;99.90;;;;;;5093106;28;20242;-75
2023/03/20 09:16:46;;;;;;;8.03;5.20;;;9.80;99.90;;;;;;5093231;28;20626;-75
2023/03/20 09:19:12;;;;;;;8.07;6.27;;;9.70;99.90;;;;;;5092765;28;20277;-75
2023/03/20 09:21:40;;;;;;;6.10;5.50;;;9.90;99.90;;;;;;5093284;28;20235;-76
2023/03/20 09:24:07;;;;;;;6.90;5.60;;;9.90;99.90;;;;;;5093295;28;20247;-76
2023/03/20 09:26:34;;;;;;;6.43;5.40;;;9.90;99.90;;;;;;5093178;28;20204;-77
2023/03/20 09:29:01;;;;;;;6.00;5.37;;;9.90;99.90;;;;;;5093028;28;20200;-76
2023/03/20 09:31:28;;;;;;;5.77;5.17;;;9.70;99.90;;;;;;5092940;28;20606;-77
2023/03/20 09:33:54;;;;;;;8.53;5.70;;;9.80;99.90;;;;;;5093139;28;20255;-76
2023/03/20 09:36:21;;;;;;;7.83;5.13;;;9.90;99.90;;;;;;5093262;28;20236;-76
2023/03/20 09:38:49;;;;;;;7.53;5.13;;;9.90;99.90;;;;;;5093301;28;20247;-76
2023/03/20 09:41:20;;;;;;;5.93;4.83;;;9.90;99.90;;;;;;5093114;28;20200;-74
2023/03/20 09:44:00;;;;;;;6.57;5.03;;;9.90;99.90;;;;;;5093211;28;20234;-77
2023/03/20 09:46:41;;;;;;;6.33;4.87;;;9.90;99.90;;;;;;5093041;28;20228;-76
2023/03/20 09:49:17;;;;;;;5.57;4.57;;;10.20;99.90;;;;;;5093188;28;20196;-75
2023/03/20 09:51:48;;;;;;;9.33;4.70;;;10.40;99.90;;;;;;5093075;28;20224;-75
2023/03/20 09:54:22;;;;;;;6.07;4.77;;;10.60;99.90;;;;;;5092902;28;20238;-74
2023/03/20 09:56:50;;;;;;;6.40;4.20;;;10.90;99.90;;;;;;5093124;28;20564;-75
2023/03/20 09:59:19;;;;;;;4.87;4.37;;;10.80;99.90;;;;;;5092942;28;20319;-75
2023/03/20 10:01:50;;;;;;;5.60;4.60;;;10.80;99.90;;;;;;5092968;28;20193;-75
2023/03/20 10:04:17;;;;;;;5.97;4.67;;;11.00;99.90;;;;;;5092779;28;20232;-75
2023/03/20 10:06:44;;;;;;;5.70;3.97;;;11.00;99.90;;;;;;5092737;28;20224;-76
2023/03/20 10:09:17;;;;;;;5.97;4.27;;;11.00;99.90;;;;;;5092562;28;20207;-77
2023/03/20 10:12:00;;;;;;;5.13;4.63;;;11.10;99.90;;;;;;5092603;28;20728;-75
2023/03/20 10:14:35;;;;;;;5.60;4.77;;;11.00;99.90;;;;;;5092777;28;20203;-77
2023/03/20 10:17:19;;;;;;;5.47;4.57;;;11.10;99.90;;;;;;5100182;28;20192;-76
2023/03/20 10:19:52;;;;;;;5.23;4.33;;;11.40;99.90;;;;;;5101236;28;20216;-76
2023/03/20 10:22:24;;;;;;;5.13;4.60;;;11.70;99.90;;;;;;5092850;28;20199;-76
2023/03/20 10:24:57;;;;;;;5.23;4.73;;;11.90;99.90;;;;;;5092896;28;20220;-75
2023/03/20 10:27:26;;;;;;;5.33;4.30;;;11.70;99.90;;;;;;5093189;28;20254;-75
2023/03/20 10:30:03;;;;;;;4.93;4.40;;;11.60;99.90;;;;;;5093370;28;20196;-75
2023/03/20 10:32:36;;;;;;;4.50;4.10;;;12.00;99.90;;;;;;5095541;28;20196;-74
2023/03/20 10:35:15;;;;;;;4.17;3.77;;;11.80;99.90;;;;;;5097615;28;20228;-75
2023/03/20 10:37:52;;;;;;;6.03;4.27;;;11.90;99.90;;;;;;5096579;28;20200;-76
2023/03/20 10:40:29;;;;;;;3.93;3.53;;;12.10;99.90;;;;;;5097014;28;20200;-77
2023/03/20 10:43:00;;;;;;;5.30;4.00;;;12.50;99.90;;;;;;5096814;28;20231;-75
2023/03/20 10:45:33;;;;;;;5.50;3.90;;;12.60;99.90;;;;;;5096066;28;20703;-75
2023/03/20 10:48:04;;;;;;;5.20;3.57;;;12.20;99.90;;;;;;5096204;28;20242;-75
2023/03/20 10:50:37;;;;;;;4.23;3.20;;;12.30;99.90;;;;;;5095815;28;20196;-74
2023/03/20 10:53:06;;;;;;;3.87;3.07;;;12.30;99.90;;;;;;5095662;28;20236;-74
2023/03/20 10:55:40;;;;;;;4.60;3.50;;;12.00;99.90;;;;;;5095467;28;20672;-74
2023/03/20 10:58:15;;;;;;;4.30;3.90;;;12.00;99.90;;;;;;5095614;28;20273;-74
2023/03/20 11:00:42;;;;;;;3.80;3.50;;;12.00;99.90;;;;;;5095535;28;20234;-74
2023/03/20 11:03:19;;;;;;;7.57;4.30;;;12.00;99.90;;;;;;5095361;28;20200;-74
2023/03/20 11:05:46;;;;;;;3.80;3.40;;;12.50;99.90;;;;;;5095611;28;20656;-73
2023/03/20 11:08:14;;;;;;;5.17;3.60;;;12.50;99.90;;;;;;5095303;28;20714;-74
2023/03/20 11:10:43;;;;;;;4.20;3.50;;;12.50;99.90;;;;;;5095371;28;20192;-75
2023/03/20 11:13:23;;;;;;;3.60;3.30;;;12.60;99.90;;;;;;5095226;28;20227;-75
2023/03/20 11:15:52;;;;;;;4.13;3.47;;;12.70;99.90;;;;;;5095206;28;20611;-74
2023/03/20 11:18:19;;;;;;;5.90;3.67;;;13.00;99.90;;;;;;5095001;28;20695;-75
2023/03/20 11:20:49;;;;;;;4.43;3.50;;;12.60;99.90;;;;;;5095224;28;20224;-74
2023/03/20 11:23:19;;;;;;;6.53;3.50;;;12.80;99.90;;;;;;5095092;28;20196;-75
2023/03/20 11:25:51;;;;;;;3.73;3.43;;;12.10;99.90;;;;;;5095084;28;20287;-74
2023/03/20 11:28:29;;;;;;;4.20;3.70;;;12.10;99.90;;;;;;5095030;28;20728;-74
2023/03/20 11:31:00;;;;;;;4.17;3.50;;;12.20;99.90;;;;;;5095000;28;20231;-74
2023/03/20 11:33:28;;;;;;;3.93;3.20;;;12.70;99.90;;;;;;5094784;28;20278;-74
2023/03/20 11:35:57;;;;;;;3.37;2.93;;;13.00;99.90;;;;;;5094753;28;20223;-74
2023/03/20 11:38:24;;;;;;;4.13;3.43;;;12.80;99.90;;;;;;5094656;28;20216;-74
2023/03/20 11:40:52;;;;;;;3.67;3.37;;;12.70;99.90;;;;;;5094662;28;20232;-73
2023/03/20 11:43:21;;;;;;;4.83;3.10;;;12.60;99.90;;;;;;5094322;28;20590;-75
2023/03/20 11:45:49;;;;;;;3.63;3.13;;;12.80;99.90;;;;;;5094754;28;20282;-74
2023/03/20 11:48:21;;;;;;;4.93;3.40;;;12.80;99.90;;;;;;5094673;28;20203;-74
2023/03/20 11:50:52;;;;;;;4.03;3.63;;;12.80;99.90;;;;;;5094421;28;20648;-74
2023/03/20 11:53:25;;;;;;;3.80;3.50;;;12.50;99.90;;;;;;5094457;28;20239;-73
2023/03/20 11:56:10;;;;;;;3.80;3.40;;;12.70;99.90;;;;;;5094743;28;20232;-75
2023/03/20 11:58:39;;;;;;;3.57;3.27;;;12.90;99.90;;;;;;5094436;28;20223;-75
2023/03/20 12:01:10;;;;;;;4.60;3.90;;;12.90;99.90;;;;;;5094321;28;20718;-74
2023/03/20 12:03:41;;;;;;;4.10;3.50;;;12.90;99.90;;;;;;5094214;28;20291;-73
2023/03/20 12:06:14;;;;;;;4.10;3.70;;;13.00;99.90;;;;;;5094174;28;20663;-73
2023/03/20 12:08:46;;;;;;;4.27;3.83;;;12.60;99.90;;;;;;5094160;28;20232;-74
2023/03/20 12:11:26;;;;;;;5.23;4.40;;;12.50;99.90;;;;;;5094171;28;20201;-75
2023/03/20 12:13:55;;;;;;;5.03;4.53;;;12.30;99.90;;;;;;5094166;28;20620;-74
2023/03/20 12:16:23;;;;;;;5.37;4.57;;;12.20;99.90;;;;;;5094285;28;20227;-74
2023/03/20 12:18:55;;;;;;;5.00;4.60;;;12.00;99.90;;;;;;5094189;28;20262;-73
2023/03/20 12:21:26;;;;;;;5.40;4.90;;;12.00;99.90;;;;;;5093949;28;20653;-73
2023/03/20 12:24:00;;;;;;;5.33;4.83;;;12.00;99.90;;;;;;5094078;28;20192;-74
2023/03/20 12:26:34;;;;;;;5.63;5.13;;;12.20;99.90;;;;;;5093918;28;20196;-75
2023/03/20 12:29:06;;;;;;;6.40;5.80;;;12.30;99.90;;;;;;5094103;28;20203;-74
2023/03/20 12:31:38;;;;;;;6.50;5.63;;;12.50;99.90;;;;;;5094013;28;20235;-74
2023/03/20 12:34:11;;;;;;;6.20;5.60;;;12.70;99.90;;;;;;5093832;28;20255;-73
2023/03/20 12:36:41;;;;;;;5.47;4.90;;;13.10;99.90;;;;;;5093850;28;20264;-73
2023/03/20 12:39:14;;;;;;;5.20;4.70;;;12.70;99.90;;;;;;5093540;28;20653;-73
2023/03/20 12:41:58;;;;;;;5.77;5.07;;;13.00;99.90;;;;;;5093883;28;20218;-74
2023/03/20 12:44:39;;;;;;;5.73;4.50;;;13.10;99.90;;;;;;5093605;28;20664;-73
2023/03/20 12:47:42;;;;;;;4.50;4.10;;;13.60;99.90;;;;;;5093611;28;20204;-73
2023/03/20 12:50:19;;;;;;;4.70;4.20;;;13.70;99.90;;;;;;5061189;28;20348;-73
2023/03/20 12:52:57;;;;;;;6.63;4.70;;;13.50;99.90;;;;;;5093438;28;20207;-73
2023/03/20 12:55:37;;;;;;;4.80;4.40;;;13.80;99.90;;;;;;5092906;28;20196;-74
2023/03/20 12:58:18;;;;;;;5.20;4.40;;;14.10;99.90;;;;;;5093226;28;20224;-74